createdAt,value
2018-08-12T00:00:45.081Z,3.10
2018-08-12T00:03:20.544Z,2.90
2018-08-12T00:05:56.076Z,3.22
2018-08-12T00:08:31.500Z,2.47
2018-08-12T00:11:06.960Z,2.95
2018-08-12T00:13:42.198Z,2.80
2018-08-12T00:16:17.645Z,2.90
2018-08-12T00:18:53.672Z,3.27
2018-08-12T00:21:29.152Z,3.00
2018-08-12T00:24:04.748Z,2.80
2018-08-12T00:26:40.249Z,2.90
2018-08-12T00:29:15.692Z,3.27
2018-08-12T00:31:51.358Z,3.50
2018-08-12T00:34:26.834Z,3.42
2018-08-12T00:37:02.640Z,2.90
2018-08-12T00:39:37.860Z,3.90
2018-08-12T00:42:13.534Z,3.37
2018-08-12T00:44:49.085Z,3.58
2018-08-12T00:47:24.524Z,4.53
2018-08-12T00:49:59.789Z,3.90
2018-08-12T00:52:35.313Z,3.42
2018-08-12T00:55:13.500Z,3.92
2018-08-12T00:57:49.412Z,4.10
2018-08-12T01:00:24.752Z,4.15
2018-08-12T01:03:00.885Z,4.17
2018-08-12T01:05:36.157Z,4.45
2018-08-12T01:08:11.772Z,4.10
2018-08-12T01:10:47.160Z,4.17
2018-08-12T01:13:22.765Z,4.20
2018-08-12T01:15:58.217Z,4.00
2018-08-12T01:18:40.002Z,4.50
2018-08-12T01:21:15.261Z,4.25
2018-08-12T01:23:51.325Z,4.30
2018-08-12T01:26:26.808Z,4.47
2018-08-12T01:29:02.302Z,4.20
2018-08-12T01:31:37.607Z,4.30
2018-08-12T01:34:13.296Z,4.33
2018-08-12T01:36:48.776Z,4.30
2018-08-12T01:39:24.385Z,4.20
2018-08-12T01:41:59.873Z,4.50
2018-08-12T01:44:35.382Z,4.25
2018-08-12T01:47:10.881Z,4.10
2018-08-12T01:49:46.270Z,4.12
2018-08-12T01:52:21.450Z,3.80
2018-08-12T01:54:57.253Z,3.80
2018-08-12T01:57:32.403Z,3.45
2018-08-12T02:00:13.032Z,3.83
2018-08-12T02:02:48.708Z,3.80
2018-08-12T02:05:24.268Z,3.35
2018-08-12T02:07:59.788Z,3.70
2018-08-12T02:10:35.263Z,3.83
2018-08-12T02:13:10.815Z,3.40
2018-08-12T02:15:46.512Z,3.92
2018-08-12T02:18:21.721Z,3.62
2018-08-12T02:20:57.169Z,3.37
2018-08-12T02:23:32.988Z,3.50
2018-08-12T02:26:09.263Z,3.87
2018-08-12T02:28:45.222Z,3.60
2018-08-12T02:31:20.662Z,3.35
2018-08-12T02:33:56.122Z,3.70
2018-08-12T02:36:31.658Z,4.08
2018-08-12T02:39:10.041Z,3.80
2018-08-12T02:41:45.696Z,3.95
2018-08-12T02:44:21.180Z,4.15
2018-08-12T02:46:56.806Z,3.45
2018-08-12T02:49:32.693Z,3.80
2018-08-12T02:52:08.228Z,3.72
2018-08-12T02:54:43.780Z,3.83
2018-08-12T02:57:19.477Z,3.60
2018-08-12T02:59:54.830Z,4.30
2018-08-12T03:02:30.409Z,4.17
2018-08-12T03:05:05.808Z,4.28
2018-08-12T03:07:41.196Z,4.30
2018-08-12T03:10:16.368Z,4.40
2018-08-12T03:12:51.981Z,5.20
2018-08-12T03:15:27.453Z,5.40
2018-08-12T03:18:03.202Z,4.60
2018-08-12T03:20:38.609Z,4.25
2018-08-12T03:23:15.045Z,4.70
2018-08-12T03:25:50.446Z,5.33
2018-08-12T03:28:26.317Z,4.40
2018-08-12T03:31:01.646Z,4.92
2018-08-12T03:33:37.385Z,5.37
2018-08-12T03:36:12.701Z,5.25
2018-08-12T03:38:48.484Z,5.58
2018-08-12T03:41:23.676Z,5.50
2018-08-12T03:43:59.070Z,5.12
2018-08-12T03:46:34.600Z,5.35
2018-08-12T03:49:10.037Z,5.55
2018-08-12T03:51:45.690Z,5.72
2018-08-12T03:54:21.163Z,5.67
2018-08-12T03:56:56.348Z,5.62
2018-08-12T03:59:32.045Z,5.15
2018-08-12T04:02:08.329Z,5.70
2018-08-12T04:04:43.879Z,5.87
2018-08-12T04:07:19.197Z,6.33
2018-08-12T04:09:54.845Z,6.15
2018-08-12T04:12:30.269Z,6.65
2018-08-12T04:15:06.956Z,5.90
2018-08-12T04:17:42.688Z,6.50
2018-08-12T04:20:18.264Z,6.22
2018-08-12T04:22:53.714Z,6.33
2018-08-12T04:25:29.261Z,6.58
2018-08-12T04:28:04.715Z,6.17
2018-08-12T04:30:40.370Z,5.58
2018-08-12T04:33:15.670Z,5.95
2018-08-12T04:35:51.358Z,6.83
2018-08-12T04:38:26.808Z,6.47
2018-08-12T04:41:02.392Z,6.35
2018-08-12T04:43:37.776Z,6.10
2018-08-12T04:46:13.333Z,5.65
2018-08-12T04:48:48.544Z,6.42
2018-08-12T04:51:24.024Z,5.55
2018-08-12T04:53:59.515Z,6.62
2018-08-12T04:56:35.111Z,5.75
2018-08-12T04:59:10.444Z,6.50
2018-08-12T05:01:46.238Z,5.90
2018-08-12T05:04:21.728Z,5.33
2018-08-12T05:06:57.408Z,5.30
2018-08-12T05:09:32.823Z,4.95
2018-08-12T05:12:08.605Z,5.55
2018-08-12T05:14:44.104Z,5.47
2018-08-12T05:17:19.792Z,5.30
2018-08-12T05:19:55.085Z,5.60
2018-08-12T05:22:30.597Z,5.42
2018-08-12T05:25:06.208Z,4.90
2018-08-12T05:27:41.893Z,4.40
2018-08-12T05:30:17.567Z,4.30
2018-08-12T05:32:53.188Z,4.50
2018-08-12T05:35:28.688Z,4.70
2018-08-12T05:38:04.488Z,4.47
2018-08-12T05:40:39.951Z,4.10
2018-08-12T05:43:15.925Z,3.23
2018-08-12T05:45:51.304Z,3.70
2018-08-12T05:48:26.785Z,3.30
2018-08-12T05:53:36.885Z,3.10
2018-08-12T07:29:23.444Z,2.20
2018-08-12T07:31:58.952Z,2.10
2018-08-12T07:42:19.202Z,2.43
2018-08-12T07:44:54.590Z,2.17
2018-08-12T07:47:30.101Z,1.80
2018-08-12T07:50:06.652Z,2.23
2018-08-12T07:52:43.279Z,2.00
2018-08-12T07:55:18.688Z,1.80
2018-08-12T07:57:54.150Z,2.03
2018-08-12T08:00:29.420Z,2.60
2018-08-12T08:03:05.176Z,2.40
2018-08-12T08:05:40.529Z,2.40
2018-08-12T08:08:16.125Z,2.90
2018-08-12T08:13:26.198Z,2.67
2018-08-12T08:16:01.745Z,3.00
2018-08-12T08:18:37.377Z,2.60
2018-08-12T08:21:12.817Z,2.67
2018-08-12T08:23:48.245Z,2.60
2018-08-12T08:26:23.988Z,2.50
2018-08-12T08:28:59.468Z,2.83
2018-08-12T08:31:35.063Z,2.77
2018-08-12T08:34:10.897Z,3.30
2018-08-12T08:36:46.373Z,2.97
2018-08-12T08:39:22.069Z,3.00
2018-08-12T08:41:57.276Z,3.10
2018-08-12T08:44:32.864Z,2.90
2018-08-12T08:47:08.358Z,3.30
2018-08-12T08:49:43.851Z,2.57
2018-08-12T08:52:19.308Z,3.00
2018-08-12T08:54:54.874Z,3.40
2018-08-12T08:57:30.230Z,2.80
2018-08-12T09:00:09.625Z,3.20
2018-08-12T09:02:47.437Z,3.20
2018-08-12T09:05:23.281Z,3.00
2018-08-12T09:07:58.855Z,3.30
2018-08-12T09:10:34.372Z,3.00
2018-08-12T09:13:09.632Z,2.70
2018-08-12T09:15:45.272Z,3.20
2018-08-12T09:18:20.787Z,3.10
2018-08-12T09:20:56.268Z,3.63
2018-08-12T09:23:31.416Z,3.63
2018-08-12T09:26:06.939Z,3.00
2018-08-12T09:28:42.884Z,3.27
2018-08-12T09:31:18.653Z,3.03
2018-08-12T09:33:53.908Z,3.47
2018-08-12T09:36:29.544Z,3.73
2018-08-12T09:39:09.694Z,4.13
2018-08-12T09:41:45.151Z,3.67
2018-08-12T09:44:20.616Z,4.77
2018-08-12T09:46:56.237Z,4.90
2018-08-12T09:49:31.685Z,4.40
2018-08-12T09:52:07.334Z,4.33
2018-08-12T09:54:42.512Z,3.90
2018-08-12T09:57:18.045Z,5.17
2018-08-12T09:59:54.189Z,4.53
2018-08-12T10:02:29.831Z,4.60
2018-08-12T10:05:05.800Z,5.20
2018-08-12T10:07:41.638Z,5.00
2018-08-12T10:10:17.287Z,5.37
2018-08-12T10:12:52.769Z,4.57
2018-08-12T10:15:28.091Z,4.90
2018-08-12T10:18:04.644Z,3.93
2018-08-12T10:20:40.041Z,4.73
2018-08-12T10:23:16.363Z,4.60
2018-08-12T10:25:51.734Z,4.50
2018-08-12T10:28:27.669Z,4.43
2018-08-12T10:31:02.930Z,4.67
2018-08-12T10:33:38.544Z,4.80
2018-08-12T10:36:13.805Z,4.63
2018-08-12T10:38:49.755Z,6.40
2018-08-12T10:41:25.160Z,5.13
2018-08-12T10:44:00.664Z,4.40
2018-08-12T10:46:35.869Z,4.40
2018-08-12T10:49:11.524Z,4.53
2018-08-12T10:51:46.703Z,4.67
2018-08-12T10:54:22.156Z,4.73
2018-08-12T10:56:57.665Z,3.80
2018-08-12T10:59:33.238Z,3.57
2018-08-12T11:02:08.580Z,4.40
2018-08-12T11:04:44.122Z,4.10
2018-08-12T11:07:19.524Z,4.57
2018-08-12T11:09:55.094Z,4.00
2018-08-12T11:12:30.413Z,4.90
2018-08-12T11:15:06.907Z,4.27
2018-08-12T11:17:42.304Z,4.83
2018-08-12T11:20:18.988Z,4.37
2018-08-12T11:22:54.346Z,4.83
2018-08-12T11:25:30.020Z,3.80
2018-08-12T11:28:05.561Z,4.73
2018-08-12T11:30:40.904Z,3.70
2018-08-12T11:33:16.862Z,4.50
2018-08-12T11:35:52.306Z,4.87
2018-08-12T11:38:27.870Z,3.90
2018-08-12T11:41:03.460Z,4.43
2018-08-12T11:43:39.561Z,4.03
2018-08-12T11:46:15.332Z,5.80
2018-08-12T11:48:50.674Z,4.23
2018-08-12T11:51:26.412Z,4.20
2018-08-12T11:54:01.840Z,4.67
2018-08-12T11:56:37.333Z,4.00
2018-08-12T11:59:12.607Z,3.60
2018-08-12T12:01:48.118Z,4.20
2018-08-12T12:04:23.657Z,3.90
2018-08-12T12:06:59.301Z,4.13
2018-08-12T12:09:35.453Z,4.20
2018-08-12T12:12:11.045Z,5.00
2018-08-12T12:14:46.513Z,5.03
2018-08-12T12:17:21.988Z,3.80
2018-08-12T12:19:57.440Z,4.80
2018-08-12T12:22:32.957Z,4.47
2018-08-12T12:25:10.545Z,3.90
2018-08-12T12:27:46.125Z,4.10
2018-08-12T12:30:23.603Z,4.50
2018-08-12T12:32:59.164Z,4.10
2018-08-12T12:35:34.731Z,3.77
2018-08-12T12:38:11.303Z,4.30
2018-08-12T12:40:46.689Z,3.80
2018-08-12T12:43:22.181Z,3.87
2018-08-12T12:45:57.742Z,4.00
2018-08-12T12:48:33.375Z,4.23
2018-08-12T12:51:08.848Z,3.90
2018-08-12T12:53:44.305Z,3.37
2018-08-12T12:56:19.632Z,3.90
2018-08-12T12:58:55.081Z,3.63
2018-08-12T13:01:30.441Z,3.40
2018-08-12T13:04:05.937Z,3.67
2018-08-12T13:06:41.350Z,3.37
2018-08-12T13:09:16.933Z,3.67
2018-08-12T13:11:52.260Z,3.70
2018-08-12T13:14:27.928Z,4.20
2018-08-12T13:17:03.157Z,3.93
2018-08-12T13:19:38.616Z,3.33
2018-08-12T13:22:14.465Z,3.77
2018-08-12T13:24:50.022Z,4.07
2018-08-12T13:27:25.488Z,3.97
2018-08-12T13:30:01.019Z,3.77
2018-08-12T13:32:36.509Z,3.97
2018-08-12T13:35:12.005Z,3.43
2018-08-12T13:37:47.562Z,4.00
2018-08-12T13:40:23.115Z,3.80
2018-08-12T13:42:58.532Z,3.43
2018-08-12T13:45:34.192Z,4.70
2018-08-12T13:48:09.712Z,3.43
2018-08-12T13:50:45.193Z,3.90
2018-08-12T13:53:20.693Z,3.57
2018-08-12T13:55:56.084Z,3.83
2018-08-12T13:58:31.560Z,3.73
2018-08-12T14:01:06.941Z,4.27
2018-08-12T14:03:42.465Z,2.97
2018-08-12T14:06:18.060Z,3.90
2018-08-12T14:08:53.488Z,3.17
2018-08-12T14:11:29.152Z,3.63
2018-08-12T14:14:04.956Z,3.10
2018-08-12T14:16:40.563Z,3.00
2018-08-12T14:19:15.930Z,3.00
2018-08-12T14:21:51.449Z,3.30
2018-08-12T14:24:26.625Z,2.53
2018-08-12T14:27:02.333Z,2.57
2018-08-12T14:29:37.529Z,2.63
2018-08-12T14:32:13.135Z,2.60
2018-08-12T14:34:48.499Z,2.60
2018-08-12T14:37:24.041Z,2.80
2018-08-12T14:39:59.695Z,2.40
2018-08-12T14:42:35.423Z,2.70
2018-08-12T14:45:12.750Z,2.57
2018-08-12T14:47:48.391Z,3.00
2018-08-12T14:50:23.872Z,2.63
2018-08-12T14:52:59.352Z,2.80
2018-08-12T14:55:34.620Z,2.40
2018-08-12T14:58:10.136Z,2.20
2018-08-12T15:00:45.329Z,4.37
2018-08-12T15:03:20.939Z,2.70
2018-08-12T15:05:56.230Z,3.53
2018-08-12T15:08:31.722Z,2.40
2018-08-12T15:11:07.289Z,2.80
2018-08-12T15:13:42.911Z,2.80
2018-08-12T15:16:18.185Z,2.43
2018-08-12T15:18:55.796Z,2.80
2018-08-12T15:21:31.448Z,2.83
2018-08-12T15:24:06.944Z,3.10
2018-08-12T15:26:42.322Z,2.30
2018-08-12T15:29:17.843Z,3.00
2018-08-12T15:31:53.249Z,2.70
2018-08-12T15:34:28.754Z,2.90
2018-08-12T15:37:04.456Z,2.80
2018-08-12T15:39:40.496Z,6.77
2018-08-12T15:42:15.926Z,2.50
2018-08-12T15:44:51.227Z,4.83
2018-08-12T15:47:26.648Z,2.50
2018-08-12T15:50:02.296Z,2.70
2018-08-12T15:52:37.472Z,2.70
2018-08-12T15:55:13.313Z,3.50
2018-08-12T15:57:48.764Z,2.90
2018-08-12T16:00:24.301Z,3.23
2018-08-12T16:02:59.633Z,3.67
2018-08-12T16:05:35.192Z,2.73
2018-08-12T16:08:10.953Z,3.50
2018-08-12T16:10:46.385Z,3.47
2018-08-12T16:13:21.696Z,3.23
2018-08-12T16:15:57.279Z,3.20
2018-08-12T16:18:32.651Z,5.57
2018-08-12T16:21:09.442Z,6.80
2018-08-12T16:23:44.805Z,5.57
2018-08-12T16:26:27.058Z,3.40
2018-08-12T16:29:02.437Z,7.57
2018-08-12T16:31:38.046Z,3.80
2018-08-12T16:34:13.576Z,3.57
2018-08-12T16:36:49.362Z,3.90
2018-08-12T16:39:24.975Z,3.77
2018-08-12T16:42:00.649Z,3.50
2018-08-12T16:44:36.409Z,3.20
2018-08-12T16:47:11.937Z,3.40
2018-08-12T16:49:47.468Z,5.73
2018-08-12T16:52:23.036Z,4.30
2018-08-12T16:54:58.503Z,4.07
2018-08-12T16:57:34.627Z,3.07
2018-08-12T17:00:15.409Z,3.20
2018-08-12T17:02:50.864Z,3.00
2018-08-12T17:05:26.246Z,7.83
2018-08-12T17:08:02.062Z,7.43
2018-08-12T17:10:37.415Z,4.77
2018-08-12T17:13:12.952Z,4.00
2018-08-12T17:15:48.330Z,2.93
2018-08-12T17:18:24.175Z,3.50
2018-08-12T17:20:59.572Z,3.20
2018-08-12T17:23:35.340Z,5.97
2018-08-12T17:26:11.317Z,6.97
2018-08-12T17:28:46.853Z,4.50
2018-08-12T17:31:22.176Z,4.20
2018-08-12T17:33:57.636Z,3.67
2018-08-12T17:36:33.089Z,3.60
2018-08-12T17:39:10.382Z,5.13
2018-08-12T17:41:46.068Z,8.50
2018-08-12T17:44:21.675Z,4.70
2018-08-12T17:46:56.975Z,4.10
2018-08-12T17:49:32.589Z,6.27
2018-08-12T17:52:07.965Z,6.47
2018-08-12T17:54:43.594Z,6.13
2018-08-12T17:57:19.093Z,6.70
2018-08-12T17:59:54.798Z,7.07
2018-08-12T18:02:30.469Z,3.87
2018-08-12T18:05:06.694Z,3.10
2018-08-12T18:07:42.341Z,3.03
2018-08-12T18:10:17.793Z,4.80
2018-08-12T18:12:53.351Z,4.10
2018-08-12T18:15:29.264Z,4.00
2018-08-12T18:18:04.584Z,4.27
2018-08-12T18:20:40.156Z,5.00
2018-08-12T18:23:15.823Z,5.40
2018-08-12T18:25:51.456Z,4.87
2018-08-12T18:28:26.733Z,7.57
2018-08-12T18:31:02.241Z,6.37
2018-08-12T18:33:37.740Z,8.10
2018-08-12T18:36:13.342Z,11.93
2018-08-12T18:38:49.017Z,8.10
2018-08-12T18:41:24.534Z,9.00
2018-08-12T18:43:59.744Z,10.70
2018-08-12T18:46:36.249Z,8.13
2018-08-12T18:49:11.564Z,10.10
2018-08-12T18:51:47.056Z,5.70
2018-08-12T18:54:23.010Z,4.30
2018-08-12T18:56:58.642Z,4.23
2018-08-12T18:59:34.106Z,4.50
2018-08-12T19:02:09.633Z,8.63
2018-08-12T19:04:45.090Z,8.60
2018-08-12T19:07:20.721Z,5.67
2018-08-12T19:09:56.350Z,7.57
2018-08-12T19:12:31.834Z,4.90
2018-08-12T19:15:09.420Z,5.50
2018-08-12T19:17:45.100Z,6.00
2018-08-12T19:20:20.418Z,3.97
2018-08-12T19:23:02.221Z,4.10
2018-08-12T19:25:37.692Z,5.37
2018-08-12T19:28:13.317Z,4.00
2018-08-12T19:30:48.783Z,5.23
2018-08-12T19:33:24.250Z,4.57
2018-08-12T19:35:59.541Z,5.53
2018-08-12T19:38:35.592Z,4.20
2018-08-12T19:41:10.961Z,7.80
2018-08-12T19:43:46.784Z,9.40
2018-08-12T19:46:22.085Z,8.80
2018-08-12T19:48:57.792Z,4.50
2018-08-12T19:51:33.249Z,4.77
2018-08-12T19:54:08.905Z,6.70
2018-08-12T19:56:44.540Z,3.70
2018-08-12T19:59:26.839Z,4.10
2018-08-12T20:02:02.149Z,5.00
2018-08-12T20:04:37.725Z,5.20
2018-08-12T20:07:13.047Z,4.70
2018-08-12T20:09:48.713Z,6.00
2018-08-12T20:12:24.150Z,6.20
2018-08-12T20:14:59.814Z,6.10
2018-08-12T20:17:35.314Z,5.50
2018-08-12T20:20:12.517Z,7.00
2018-08-12T20:22:47.853Z,5.77
2018-08-12T20:25:23.440Z,6.87
2018-08-12T20:27:58.769Z,4.90
2018-08-12T20:30:34.346Z,4.67
2018-08-12T20:33:09.685Z,5.00
2018-08-12T20:35:45.213Z,4.93
2018-08-12T20:38:21.561Z,4.90
2018-08-12T20:40:56.868Z,10.87
2018-08-12T20:43:32.141Z,4.73
2018-08-12T20:46:07.797Z,4.70
2018-08-12T20:48:43.212Z,5.73
2018-08-12T20:51:18.707Z,3.60
2018-08-12T20:53:54.124Z,3.83
2018-08-12T20:56:29.641Z,5.70
2018-08-12T20:59:05.964Z,4.03
2018-08-12T21:01:41.729Z,3.57
2018-08-12T21:04:17.281Z,8.17
2018-08-12T21:06:53.704Z,7.87
2018-08-12T21:09:29.239Z,5.53
2018-08-12T21:12:04.983Z,3.90
2018-08-12T21:14:40.117Z,4.60
2018-08-12T21:17:15.717Z,4.87
2018-08-12T21:19:51.233Z,3.77
2018-08-12T21:22:26.824Z,7.17
2018-08-12T21:25:02.337Z,5.80
2018-08-12T21:27:38.434Z,4.90
2018-08-12T21:30:13.769Z,6.63
2018-08-12T21:32:49.366Z,5.03
2018-08-12T21:35:24.791Z,10.27
2018-08-12T21:38:00.214Z,4.97
2018-08-12T21:40:35.641Z,3.63
2018-08-12T21:43:11.331Z,6.53
2018-08-12T21:45:46.769Z,3.50
2018-08-12T21:48:22.290Z,6.33
2018-08-12T21:50:57.773Z,4.00
2018-08-12T21:53:33.384Z,3.90
2018-08-12T21:56:08.865Z,4.40
2018-08-12T21:58:44.272Z,5.40
2018-08-12T22:01:19.573Z,5.47
2018-08-12T22:03:55.057Z,9.30
2018-08-12T22:06:30.479Z,7.37
2018-08-12T22:09:09.196Z,6.80
2018-08-12T22:11:44.595Z,5.70
2018-08-12T22:14:20.261Z,8.67
2018-08-12T22:16:55.656Z,4.97
2018-08-12T22:19:31.933Z,4.33
2018-08-12T22:22:07.599Z,4.40
2018-08-12T22:24:43.293Z,6.30
2018-08-12T22:27:19.065Z,4.73
2018-08-12T22:29:54.733Z,3.50
2018-08-12T22:32:30.061Z,11.60
2018-08-12T22:35:06.065Z,3.50
2018-08-12T22:37:41.347Z,11.37
2018-08-12T22:40:17.289Z,5.53
2018-08-12T22:42:52.673Z,4.10
2018-08-12T22:45:28.462Z,5.33
2018-08-12T22:48:03.765Z,3.60
2018-08-12T22:50:39.248Z,5.70
2018-08-12T22:53:14.736Z,6.37
2018-08-12T22:55:50.586Z,4.53
2018-08-12T22:58:25.900Z,8.77
2018-08-12T23:01:01.308Z,3.83
2018-08-12T23:03:36.804Z,9.17
2018-08-12T23:06:12.509Z,12.70
2018-08-12T23:08:47.987Z,21.87
2018-08-12T23:11:23.714Z,5.70
2018-08-12T23:13:59.034Z,17.00
2018-08-12T23:16:51.801Z,30.43
2018-08-12T23:19:27.418Z,15.60
2018-08-12T23:22:02.892Z,14.50
2018-08-12T23:24:38.164Z,5.60
2018-08-12T23:27:13.692Z,9.50
2018-08-12T23:29:48.869Z,7.43
2018-08-12T23:32:24.364Z,21.87
2018-08-12T23:34:59.837Z,7.83
2018-08-12T23:37:35.465Z,7.00
2018-08-12T23:40:11.035Z,11.40
2018-08-12T23:42:46.548Z,15.87
2018-08-12T23:45:21.913Z,11.57
2018-08-12T23:47:57.659Z,12.17
2018-08-12T23:50:32.960Z,8.47
2018-08-12T23:53:08.433Z,5.30
2018-08-12T23:55:43.657Z,5.63
2018-08-12T23:58:19.234Z,5.60
